sensor_id;sensor_type;location;lat;lon;timestamp;pressure;altitude;pressure_sealevel;temperature;humidity
65760;BME280;52496;51.082;5.066;2022-09-27T00:01:52;99781.38;;;10.19;100.00
65760;BME280;52496;51.082;5.066;2022-09-27T00:04:23;99778.94;;;10.18;100.00
65760;BME280;52496;51.082;5.066;2022-09-27T00:06:53;99788.00;;;10.17;100.00
65760;BME280;52496;51.082;5.066;2022-09-27T00:09:24;99793.53;;;10.15;100.00
65760;BME280;52496;51.082;5.066;2022-09-27T00:11:54;99789.81;;;10.16;100.00
65760;BME280;52496;51.082;5.066;2022-09-27T00:14:25;99798.06;;;10.15;100.00
65760;BME280;52496;51.082;5.066;2022-09-27T00:16:55;99802.56;;;10.14;100.00
65760;BME280;52496;51.082;5.066;2022-09-27T00:19:25;99802.75;;;10.13;100.00
65760;BME280;52496;51.082;5.066;2022-09-27T00:21:56;99812.44;;;10.14;100.00
65760;BME280;52496;51.082;5.066;2022-09-27T00:24:27;99808.72;;;10.15;100.00
65760;BME280;52496;51.082;5.066;2022-09-27T00:26:57;99821.47;;;10.13;100.00
65760;BME280;52496;51.082;5.066;2022-09-27T00:29:28;99824.13;;;10.13;100.00
65760;BME280;52496;51.082;5.066;2022-09-27T00:31:59;99823.13;;;10.14;100.00
65760;BME280;52496;51.082;5.066;2022-09-27T00:34:29;99832.97;;;10.13;100.00
65760;BME280;52496;51.082;5.066;2022-09-27T00:37:00;99832.97;;;10.13;100.00
65760;BME280;52496;51.082;5.066;2022-09-27T00:39:30;99819.59;;;10.13;100.00
65760;BME280;52496;51.082;5.066;2022-09-27T00:42:00;99833.19;;;10.11;100.00
65760;BME280;52496;51.082;5.066;2022-09-27T00:47:08;99848.19;;;10.13;100.00
65760;BME280;52496;51.082;5.066;2022-09-27T00:49:53;99847.16;;;10.14;100.00
65760;BME280;52496;51.082;5.066;2022-09-27T00:52:53;99849.00;;;10.13;100.00
65760;BME280;52496;51.082;5.066;2022-09-27T00:55:33;99846.53;;;10.11;100.00
65760;BME280;52496;51.082;5.066;2022-09-27T00:58:06;99844.91;;;10.10;100.00
65760;BME280;52496;51.082;5.066;2022-09-27T01:00:40;99841.63;;;10.08;100.00
65760;BME280;52496;51.082;5.066;2022-09-27T01:03:14;99845.91;;;10.09;100.00
65760;BME280;52496;51.082;5.066;2022-09-27T01:05:52;99846.13;;;10.08;100.00
65760;BME280;52496;51.082;5.066;2022-09-27T01:08:22;99843.66;;;10.06;100.00
65760;BME280;52496;51.082;5.066;2022-09-27T01:22:28;99868.94;;;9.97;100.00
65760;BME280;52496;51.082;5.066;2022-09-27T01:28:11;99861.72;;;9.98;100.00
65760;BME280;52496;51.082;5.066;2022-09-27T01:31:01;99865.44;;;9.97;100.00
65760;BME280;52496;51.082;5.066;2022-09-27T01:33:44;99855.16;;;9.94;100.00
65760;BME280;52496;51.082;5.066;2022-09-27T01:36:40;99870.78;;;9.90;100.00
65760;BME280;52496;51.082;5.066;2022-09-27T01:45:18;99876.94;;;9.84;100.00
65760;BME280;52496;51.082;5.066;2022-09-27T01:47:55;99878.97;;;9.82;100.00
65760;BME280;52496;51.082;5.066;2022-09-27T01:50:34;99884.53;;;9.80;100.00
65760;BME280;52496;51.082;5.066;2022-09-27T01:53:27;99886.34;;;9.80;100.00
65760;BME280;52496;51.082;5.066;2022-09-27T01:56:05;99878.56;;;9.78;100.00
65760;BME280;52496;51.082;5.066;2022-09-27T01:58:41;99879.38;;;9.79;100.00
65760;BME280;52496;51.082;5.066;2022-09-27T02:01:13;99878.56;;;9.78;100.00
65760;BME280;52496;51.082;5.066;2022-09-27T02:03:48;99880.59;;;9.76;100.00
65760;BME280;52496;51.082;5.066;2022-09-27T02:06:24;99872.81;;;9.75;100.00
65760;BME280;52496;51.082;5.066;2022-09-27T02:09:26;99878.56;;;9.72;100.00
65760;BME280;52496;51.082;5.066;2022-09-27T02:12:02;99870.72;;;9.70;100.00
65760;BME280;52496;51.082;5.066;2022-09-27T02:14:42;99877.28;;;9.68;100.00
65760;BME280;52496;51.082;5.066;2022-09-27T02:17:24;99872.34;;;9.64;100.00
65760;BME280;52496;51.082;5.066;2022-09-27T02:20:16;99868.28;;;9.62;100.00
65760;BME280;52496;51.082;5.066;2022-09-27T02:25:42;99876.69;;;9.59;100.00
65760;BME280;52496;51.082;5.066;2022-09-27T02:28:41;99867.81;;;9.58;100.00
65760;BME280;52496;51.082;5.066;2022-09-27T02:31:14;99889.19;;;9.58;100.00
65760;BME280;52496;51.082;5.066;2022-09-27T02:33:58;99894.53;;;9.58;100.00
65760;BME280;52496;51.082;5.066;2022-09-27T02:36:30;99885.50;;;9.59;100.00
65760;BME280;52496;51.082;5.066;2022-09-27T02:39:00;99893.13;;;9.62;100.00
65760;BME280;52496;51.082;5.066;2022-09-27T02:41:31;99889.63;;;9.62;100.00
65760;BME280;52496;51.082;5.066;2022-09-27T02:44:04;99894.97;;;9.62;100.00
65760;BME280;52496;51.082;5.066;2022-09-27T02:47:26;99879.75;;;9.62;100.00
65760;BME280;52496;51.082;5.066;2022-09-27T02:52:52;99884.88;;;9.64;100.00
65760;BME280;52496;51.082;5.066;2022-09-27T03:01:25;99897.22;;;9.65;100.00
65760;BME280;52496;51.082;5.066;2022-09-27T03:06:38;99897.41;;;9.63;100.00
65760;BME280;52496;51.082;5.066;2022-09-27T03:09:27;99899.06;;;9.64;100.00
65760;BME280;52496;51.082;5.066;2022-09-27T03:11:58;99903.56;;;9.64;100.00
65760;BME280;52496;51.082;5.066;2022-09-27T03:14:29;99903.56;;;9.64;100.00
65760;BME280;52496;51.082;5.066;2022-09-27T03:16:59;99897.41;;;9.63;100.00
65760;BME280;52496;51.082;5.066;2022-09-27T03:19:29;99901.13;;;9.62;100.00
65760;BME280;52496;51.082;5.066;2022-09-27T03:22:00;99899.44;;;9.61;100.00
65760;BME280;52496;51.082;5.066;2022-09-27T03:24:30;99900.50;;;9.60;100.00
65760;BME280;52496;51.082;5.066;2022-09-27T03:27:00;99896.19;;;9.59;100.00
65760;BME280;52496;51.082;5.066;2022-09-27T03:29:38;99899.66;;;9.60;100.00
65760;BME280;52496;51.082;5.066;2022-09-27T03:32:08;99899.03;;;9.58;100.00
65760;BME280;52496;51.082;5.066;2022-09-27T03:34:39;99895.94;;;9.54;100.00
65760;BME280;52496;51.082;5.066;2022-09-27T03:37:10;99890.19;;;9.51;100.00
65760;BME280;52496;51.082;5.066;2022-09-27T03:39:40;99886.72;;;9.50;100.00
65760;BME280;52496;51.082;5.066;2022-09-27T03:42:11;99887.13;;;9.47;100.00
65760;BME280;52496;51.082;5.066;2022-09-27T03:44:41;99889.16;;;9.45;100.00
65760;BME280;52496;51.082;5.066;2022-09-27T03:47:12;99887.91;;;9.41;100.00
65760;BME280;52496;51.082;5.066;2022-09-27T03:49:42;99887.28;;;9.39;100.00
65760;BME280;52496;51.082;5.066;2022-09-27T03:52:13;99891.97;;;9.37;100.00
65760;BME280;52496;51.082;5.066;2022-09-27T03:54:44;99882.75;;;9.33;100.00
65760;BME280;52496;51.082;5.066;2022-09-27T03:57:14;99890.31;;;9.29;100.00
65760;BME280;52496;51.082;5.066;2022-09-27T03:59:44;99886.22;;;9.27;100.00
65760;BME280;52496;51.082;5.066;2022-09-27T04:02:15;99891.94;;;9.24;100.00
65760;BME280;52496;51.082;5.066;2022-09-27T04:04:46;99887.00;;;9.21;100.00
65760;BME280;52496;51.082;5.066;2022-09-27T04:07:16;99873.88;;;9.19;100.00
65760;BME280;52496;51.082;5.066;2022-09-27T04:09:47;99873.25;;;9.17;100.00
65760;BME280;52496;51.082;5.066;2022-09-27T04:12:17;99890.66;;;9.13;100.00
65760;BME280;52496;51.082;5.066;2022-09-27T04:14:48;99881.22;;;9.10;100.00
65760;BME280;52496;51.082;5.066;2022-09-27T04:17:18;99882.84;;;9.05;100.00
65760;BME280;52496;51.082;5.066;2022-09-27T04:19:49;99887.75;;;9.01;100.00
65760;BME280;52496;51.082;5.066;2022-09-27T04:22:19;99896.31;;;8.96;100.00
65760;BME280;52496;51.082;5.066;2022-09-27T04:24:50;99890.56;;;8.93;100.00
65760;BME280;52496;51.082;5.066;2022-09-27T04:27:20;99889.31;;;8.89;100.00
65760;BME280;52496;51.082;5.066;2022-09-27T04:29:52;99887.06;;;8.86;100.00
65760;BME280;52496;51.082;5.066;2022-09-27T04:32:22;99882.09;;;8.83;100.00
65760;BME280;52496;51.082;5.066;2022-09-27T04:34:53;99887.44;;;8.83;100.00
65760;BME280;52496;51.082;5.066;2022-09-27T04:37:41;99880.25;;;8.83;100.00
65760;BME280;52496;51.082;5.066;2022-09-27T04:40:14;99879.44;;;8.83;100.00
65760;BME280;52496;51.082;5.066;2022-09-27T04:42:45;99878.81;;;8.81;100.00
65760;BME280;52496;51.082;5.066;2022-09-27T04:45:17;99881.47;;;8.81;100.00
65760;BME280;52496;51.082;5.066;2022-09-27T04:47:49;99888.44;;;8.82;100.00
65760;BME280;52496;51.082;5.066;2022-09-27T04:50:19;99889.09;;;8.84;100.00
65760;BME280;52496;51.082;5.066;2022-09-27T04:52:50;99886.59;;;8.82;100.00
65760;BME280;52496;51.082;5.066;2022-09-27T04:55:21;99889.25;;;8.82;100.00
65760;BME280;52496;51.082;5.066;2022-09-27T04:57:52;99893.78;;;8.82;100.00
65760;BME280;52496;51.082;5.066;2022-09-27T05:00:23;99896.25;;;8.83;100.00
65760;BME280;52496;51.082;5.066;2022-09-27T05:02:53;99894.59;;;8.82;100.00
65760;BME280;52496;51.082;5.066;2022-09-27T05:05:24;99897.47;;;8.81;100.00
65760;BME280;52496;51.082;5.066;2022-09-27T05:07:54;99909.78;;;8.82;100.00
65760;BME280;52496;51.082;5.066;2022-09-27T05:10:25;99916.13;;;8.81;100.00
65760;BME280;52496;51.082;5.066;2022-09-27T05:12:55;99920.81;;;8.79;100.00
65760;BME280;52496;51.082;5.066;2022-09-27T05:15:26;99922.88;;;8.77;100.00
65760;BME280;52496;51.082;5.066;2022-09-27T05:17:57;99924.50;;;8.78;100.00
65760;BME280;52496;51.082;5.066;2022-09-27T05:20:28;99915.69;;;8.77;100.00
65760;BME280;52496;51.082;5.066;2022-09-27T05:22:59;99924.91;;;8.75;100.00
65760;BME280;52496;51.082;5.066;2022-09-27T05:25:31;99915.88;;;8.76;100.00
65760;BME280;52496;51.082;5.066;2022-09-27T05:28:02;99915.06;;;8.75;100.00
65760;BME280;52496;51.082;5.066;2022-09-27T05:30:32;99925.53;;;8.77;100.00
65760;BME280;52496;51.082;5.066;2022-09-27T05:33:04;99923.88;;;8.76;100.00
65760;BME280;52496;51.082;5.066;2022-09-27T05:35:35;99920.00;;;8.78;100.00
65760;BME280;52496;51.082;5.066;2022-09-27T05:38:05;99926.16;;;8.79;100.00
65760;BME280;52496;51.082;5.066;2022-09-27T05:40:35;99918.97;;;8.79;100.00
65760;BME280;52496;51.082;5.066;2022-09-27T05:43:06;99919.81;;;8.80;100.00
65760;BME280;52496;51.082;5.066;2022-09-27T05:45:36;99913.47;;;8.81;100.00
65760;BME280;52496;51.082;5.066;2022-09-27T05:48:07;99917.59;;;8.83;100.00
65760;BME280;52496;51.082;5.066;2022-09-27T05:50:38;99908.38;;;8.86;100.00
65760;BME280;52496;51.082;5.066;2022-09-27T05:53:08;99910.00;;;8.87;100.00
65760;BME280;52496;51.082;5.066;2022-09-27T05:55:39;99912.28;;;8.90;100.00
65760;BME280;52496;51.082;5.066;2022-09-27T05:58:10;99913.09;;;8.90;100.00
65760;BME280;52496;51.082;5.066;2022-09-27T06:00:42;99903.25;;;8.91;100.00
65760;BME280;52496;51.082;5.066;2022-09-27T06:03:12;99906.56;;;8.93;100.00
65760;BME280;52496;51.082;5.066;2022-09-27T06:05:43;99906.16;;;8.96;100.00
65760;BME280;52496;51.082;5.066;2022-09-27T06:08:13;99905.78;;;8.99;100.00
65760;BME280;52496;51.082;5.066;2022-09-27T06:10:44;99903.75;;;9.01;100.00
65760;BME280;52496;51.082;5.066;2022-09-27T06:13:15;99898.19;;;9.03;100.00
65760;BME280;52496;51.082;5.066;2022-09-27T06:15:46;99900.69;;;9.04;100.00
65760;BME280;52496;51.082;5.066;2022-09-27T06:18:20;99904.78;;;9.07;100.00
65760;BME280;52496;51.082;5.066;2022-09-27T06:20:50;99901.28;;;9.06;100.00
65760;BME280;52496;51.082;5.066;2022-09-27T06:23:22;99901.72;;;9.10;100.00
65760;BME280;52496;51.082;5.066;2022-09-27T06:25:52;99896.19;;;9.11;100.00
65760;BME280;52496;51.082;5.066;2022-09-27T06:28:24;99897.44;;;9.15;100.00
65760;BME280;52496;51.082;5.066;2022-09-27T06:30:56;99890.28;;;9.16;100.00
65760;BME280;52496;51.082;5.066;2022-09-27T06:33:26;99887.81;;;9.21;100.00
65760;BME280;52496;51.082;5.066;2022-09-27T06:36:01;99895.66;;;9.23;100.00
65760;BME280;52496;51.082;5.066;2022-09-27T06:38:32;99892.75;;;9.24;100.00
65760;BME280;52496;51.082;5.066;2022-09-27T06:41:03;99890.91;;;9.25;100.00
65760;BME280;52496;51.082;5.066;2022-09-27T06:43:35;99889.50;;;9.29;100.00
65760;BME280;52496;51.082;5.066;2022-09-27T06:46:06;99893.81;;;9.30;100.00
65760;BME280;52496;51.082;5.066;2022-09-27T06:48:36;99898.13;;;9.31;100.00
65760;BME280;52496;51.082;5.066;2022-09-27T06:51:07;99902.44;;;9.32;100.00
65760;BME280;52496;51.082;5.066;2022-09-27T06:53:38;99903.06;;;9.34;100.00
65760;BME280;52496;51.082;5.066;2022-09-27T06:56:08;99901.03;;;9.36;100.00
65760;BME280;52496;51.082;5.066;2022-09-27T06:58:39;99900.22;;;9.42;100.00
65760;BME280;52496;51.082;5.066;2022-09-27T07:01:28;99906.41;;;9.49;100.00
65760;BME280;52496;51.082;5.066;2022-09-27T07:03:59;99907.03;;;9.58;100.00
65760;BME280;52496;51.082;5.066;2022-09-27T07:06:29;99910.56;;;9.65;100.00
65760;BME280;52496;51.082;5.066;2022-09-27T07:09:00;99912.22;;;9.73;100.00
65760;BME280;52496;51.082;5.066;2022-09-27T07:11:30;99910.38;;;9.80;100.00
65760;BME280;52496;51.082;5.066;2022-09-27T07:14:05;99912.88;;;9.88;100.00
65760;BME280;52496;51.082;5.066;2022-09-27T07:16:37;99919.66;;;9.97;100.00
65760;BME280;52496;51.082;5.066;2022-09-27T07:19:07;99928.31;;;9.99;100.00
65760;BME280;52496;51.082;5.066;2022-09-27T07:21:40;99927.09;;;10.02;100.00
65760;BME280;52496;51.082;5.066;2022-09-27T07:24:11;99919.69;;;10.04;100.00
65760;BME280;52496;51.082;5.066;2022-09-27T07:26:42;99924.44;;;10.08;100.00
65760;BME280;52496;51.082;5.066;2022-09-27T07:29:12;99928.94;;;10.15;100.00
65760;BME280;52496;51.082;5.066;2022-09-27T07:31:42;99933.88;;;10.18;100.00
65760;BME280;52496;51.082;5.066;2022-09-27T07:34:13;99934.50;;;10.20;100.00
65760;BME280;52496;51.082;5.066;2022-09-27T07:36:47;99926.50;;;10.20;100.00
65760;BME280;52496;51.082;5.066;2022-09-27T07:39:17;99943.13;;;10.22;100.00
65760;BME280;52496;51.082;5.066;2022-09-27T07:41:48;99941.50;;;10.21;100.00
65760;BME280;52496;51.082;5.066;2022-09-27T07:44:18;99937.78;;;10.22;100.00
65760;BME280;52496;51.082;5.066;2022-09-27T07:46:49;99935.38;;;10.27;100.00
65760;BME280;52496;51.082;5.066;2022-09-27T07:49:19;99939.25;;;10.31;100.00
65760;BME280;52496;51.082;5.066;2022-09-27T07:51:50;99935.78;;;10.37;100.00
65760;BME280;52496;51.082;5.066;2022-09-27T07:54:20;99942.56;;;10.40;100.00
65760;BME280;52496;51.082;5.066;2022-09-27T07:56:51;99942.78;;;10.38;100.00
65760;BME280;52496;51.082;5.066;2022-09-27T07:59:21;99942.38;;;10.41;100.00
65760;BME280;52496;51.082;5.066;2022-09-27T08:01:52;99946.03;;;10.40;100.00
65760;BME280;52496;51.082;5.066;2022-09-27T08:04:22;99946.03;;;10.40;100.00
65760;BME280;52496;51.082;5.066;2022-09-27T08:06:54;99948.53;;;10.42;100.00
65760;BME280;52496;51.082;5.066;2022-09-27T08:09:24;99941.72;;;10.52;100.00
65760;BME280;52496;51.082;5.066;2022-09-27T08:11:56;99943.59;;;10.59;100.00
65760;BME280;52496;51.082;5.066;2022-09-27T08:14:30;99938.66;;;10.69;100.00
65760;BME280;52496;51.082;5.066;2022-09-27T08:17:00;99952.22;;;10.81;100.00
65760;BME280;52496;51.082;5.066;2022-09-27T08:19:31;99949.31;;;10.89;100.00
65760;BME280;52496;51.082;5.066;2022-09-27T08:22:02;99949.28;;;10.95;100.00
65760;BME280;52496;51.082;5.066;2022-09-27T08:24:32;99946.84;;;11.00;100.00
65760;BME280;52496;51.082;5.066;2022-09-27T08:27:03;99947.03;;;11.06;100.00
65760;BME280;52496;51.082;5.066;2022-09-27T08:29:35;99948.88;;;11.12;100.00
65760;BME280;52496;51.082;5.066;2022-09-27T08:32:05;99948.84;;;11.18;100.00
65760;BME280;52496;51.082;5.066;2022-09-27T08:34:36;99947.63;;;11.21;100.00
65760;BME280;52496;51.082;5.066;2022-09-27T08:37:07;99958.53;;;11.26;100.00
65760;BME280;52496;51.082;5.066;2022-09-27T08:39:37;99956.00;;;11.31;100.00
65760;BME280;52496;51.082;5.066;2022-09-27T08:42:26;99951.69;;;11.30;100.00
65760;BME280;52496;51.082;5.066;2022-09-27T08:45:21;99958.28;;;11.28;100.00
65760;BME280;52496;51.082;5.066;2022-09-27T08:47:57;99962.81;;;11.27;100.00
65760;BME280;52496;51.082;5.066;2022-09-27T08:50:35;99963.66;;;11.28;100.00
65760;BME280;52496;51.082;5.066;2022-09-27T08:55:44;99975.19;;;11.21;100.00
65760;BME280;52496;51.082;5.066;2022-09-27T08:58:32;99971.88;;;11.19;100.00
65760;BME280;52496;51.082;5.066;2022-09-27T09:01:12;99976.84;;;11.16;100.00
65760;BME280;52496;51.082;5.066;2022-09-27T09:03:49;99966.13;;;11.16;100.00
65760;BME280;52496;51.082;5.066;2022-09-27T09:06:27;99963.03;;;11.19;100.00
65760;BME280;52496;51.082;5.066;2022-09-27T09:26:33;99973.94;;;11.24;100.00
65760;BME280;52496;51.082;5.066;2022-09-27T09:31:57;99975.59;;;11.18;100.00
65760;BME280;52496;51.082;5.066;2022-09-27T09:34:40;99974.41;;;11.14;100.00
65760;BME280;52496;51.082;5.066;2022-09-27T09:37:20;99973.56;;;11.14;100.00
65760;BME280;52496;51.082;5.066;2022-09-27T09:40:35;99974.59;;;11.13;100.00
65760;BME280;52496;51.082;5.066;2022-09-27T09:45:45;99972.09;;;11.24;100.00
65760;BME280;52496;51.082;5.066;2022-09-27T09:54:28;99960.59;;;11.76;100.00
65760;BME280;52496;51.082;5.066;2022-09-27T09:59:47;99955.38;;;11.94;98.53
65760;BME280;52496;51.082;5.066;2022-09-27T10:02:32;99961.09;;;11.98;96.80
65760;BME280;52496;51.082;5.066;2022-09-27T10:05:05;99961.78;;;11.93;96.38
65760;BME280;52496;51.082;5.066;2022-09-27T10:07:37;99964.03;;;11.89;98.07
65760;BME280;52496;51.082;5.066;2022-09-27T10:10:12;99961.78;;;11.86;97.01
65760;BME280;52496;51.082;5.066;2022-09-27T10:12:44;99956.22;;;11.81;98.10
65760;BME280;52496;51.082;5.066;2022-09-27T10:15:18;99962.19;;;11.83;97.84
65760;BME280;52496;51.082;5.066;2022-09-27T10:17:54;99955.59;;;11.86;96.80
65760;BME280;52496;51.082;5.066;2022-09-27T10:20:38;99947.38;;;11.87;96.02
65760;BME280;52496;51.082;5.066;2022-09-27T10:23:15;99956.19;;;11.94;97.72
65760;BME280;52496;51.082;5.066;2022-09-27T10:29:11;99960.97;;;11.79;95.97
65760;BME280;52496;51.082;5.066;2022-09-27T10:31:34;99957.75;;;11.64;97.55
65760;BME280;52496;51.082;5.066;2022-09-27T10:34:19;99961.50;;;11.49;98.45
65760;BME280;52496;51.082;5.066;2022-09-27T10:37:17;99962.59;;;11.35;99.24
65760;BME280;52496;51.082;5.066;2022-09-27T10:39:49;99966.53;;;11.26;100.00
65760;BME280;52496;51.082;5.066;2022-09-27T10:42:35;99964.91;;;11.18;100.00
65760;BME280;52496;51.082;5.066;2022-09-27T10:45:39;99969.44;;;11.18;100.00
65760;BME280;52496;51.082;5.066;2022-09-27T10:48:18;99966.34;;;11.21;100.00
65760;BME280;52496;51.082;5.066;2022-09-27T10:51:24;99972.75;;;11.20;100.00
65760;BME280;52496;51.082;5.066;2022-09-27T10:53:55;99970.25;;;11.18;100.00
65760;BME280;52496;51.082;5.066;2022-09-27T10:56:31;99970.66;;;11.22;100.00
65760;BME280;52496;51.082;5.066;2022-09-27T10:59:02;99972.06;;;11.31;100.00
65760;BME280;52496;51.082;5.066;2022-09-27T11:01:42;99966.91;;;11.36;100.00
65760;BME280;52496;51.082;5.066;2022-09-27T11:04:29;99968.78;;;11.36;100.00
65760;BME280;52496;51.082;5.066;2022-09-27T11:07:15;99959.94;;;11.35;100.00
65760;BME280;52496;51.082;5.066;2022-09-27T11:09:55;99962.81;;;11.34;100.00
65760;BME280;52496;51.082;5.066;2022-09-27T11:12:32;99964.88;;;11.38;100.00
65760;BME280;52496;51.082;5.066;2022-09-27T11:15:08;99963.16;;;11.44;100.00
65760;BME280;52496;51.082;5.066;2022-09-27T11:18:02;99954.91;;;11.52;100.00
65760;BME280;52496;51.082;5.066;2022-09-27T11:20:45;99961.47;;;11.63;100.00
65760;BME280;52496;51.082;5.066;2022-09-27T11:23:39;99951.16;;;11.66;99.24
65760;BME280;52496;51.082;5.066;2022-09-27T11:26:35;99958.53;;;11.71;100.00
65760;BME280;52496;51.082;5.066;2022-09-27T11:29:21;99955.19;;;11.82;99.35
65760;BME280;52496;51.082;5.066;2022-09-27T11:32:27;99947.91;;;12.03;100.00
65760;BME280;52496;51.082;5.066;2022-09-27T11:38:17;99948.00;;;12.46;96.55
65760;BME280;52496;51.082;5.066;2022-09-27T11:46:23;99940.41;;;12.86;96.58
65760;BME280;52496;51.082;5.066;2022-09-27T11:49:11;99929.59;;;12.93;92.76
65760;BME280;52496;51.082;5.066;2022-09-27T11:57:35;99917.25;;;12.92;96.17
65760;BME280;52496;51.082;5.066;2022-09-27T12:00:19;99911.81;;;12.99;95.56
65760;BME280;52496;51.082;5.066;2022-09-27T12:14:19;99914.38;;;13.30;95.00
65760;BME280;52496;51.082;5.066;2022-09-27T12:16:52;99912.59;;;13.43;94.52
65760;BME280;52496;51.082;5.066;2022-09-27T12:19:30;99911.69;;;13.49;94.88
65760;BME280;52496;51.082;5.066;2022-09-27T12:22:04;99907.84;;;13.57;94.74
65760;BME280;52496;51.082;5.066;2022-09-27T12:24:36;99902.06;;;13.71;93.80
65760;BME280;52496;51.082;5.066;2022-09-27T12:27:12;99894.75;;;13.79;91.43
65760;BME280;52496;51.082;5.066;2022-09-27T12:29:45;99898.00;;;13.81;91.97
65760;BME280;52496;51.082;5.066;2022-09-27T12:32:24;99894.31;;;13.82;91.79
65760;BME280;52496;51.082;5.066;2022-09-27T12:35:03;99896.84;;;13.76;91.49
65760;BME280;52496;51.082;5.066;2022-09-27T12:40:24;99899.38;;;13.71;89.40
65760;BME280;52496;51.082;5.066;2022-09-27T12:43:06;99895.63;;;13.72;88.93
65760;BME280;52496;51.082;5.066;2022-09-27T12:51:15;99883.66;;;13.57;88.31
65760;BME280;52496;51.082;5.066;2022-09-27T12:54:13;99896.31;;;13.38;88.82
65760;BME280;52496;51.082;5.066;2022-09-27T13:08:57;99935.69;;;11.17;86.45
65760;BME280;52496;51.082;5.066;2022-09-27T13:12:05;99906.50;;;10.95;87.44
65760;BME280;52496;51.082;5.066;2022-09-27T13:15:03;99892.13;;;10.96;91.00
65760;BME280;52496;51.082;5.066;2022-09-27T13:31:09;99887.72;;;12.30;92.80
65760;BME280;52496;51.082;5.066;2022-09-27T13:33:47;99890.16;;;12.57;91.98
65760;BME280;52496;51.082;5.066;2022-09-27T13:36:29;99887.34;;;12.70;90.24
65760;BME280;52496;51.082;5.066;2022-09-27T13:39:03;99890.94;;;12.82;90.73
65760;BME280;52496;51.082;5.066;2022-09-27T13:47:36;99879.91;;;13.09;90.34
65760;BME280;52496;51.082;5.066;2022-09-27T13:50:25;99881.81;;;13.20;90.92
65760;BME280;52496;51.082;5.066;2022-09-27T13:55:37;99885.41;;;13.32;88.51
65760;BME280;52496;51.082;5.066;2022-09-27T14:00:55;99875.28;;;13.35;87.83
65760;BME280;52496;51.082;5.066;2022-09-27T14:03:33;99880.50;;;13.29;90.98
65760;BME280;52496;51.082;5.066;2022-09-27T14:06:07;99865.91;;;13.25;90.82
65760;BME280;52496;51.082;5.066;2022-09-27T14:08:50;99870.28;;;13.20;91.08
65760;BME280;52496;51.082;5.066;2022-09-27T14:11:29;99865.88;;;13.07;91.03
65760;BME280;52496;51.082;5.066;2022-09-27T14:14:02;99870.88;;;13.03;92.48
65760;BME280;52496;51.082;5.066;2022-09-27T14:16:39;99872.59;;;12.98;89.40
65760;BME280;52496;51.082;5.066;2022-09-27T14:19:22;99871.41;;;12.94;91.65
65760;BME280;52496;51.082;5.066;2022-09-27T14:21:55;99872.31;;;12.88;88.73
65760;BME280;52496;51.082;5.066;2022-09-27T14:24:31;99877.34;;;12.77;90.60
65760;BME280;52496;51.082;5.066;2022-09-27T14:27:20;99877.25;;;12.66;88.67
65760;BME280;52496;51.082;5.066;2022-09-27T14:29:53;99880.47;;;12.56;88.96
65760;BME280;52496;51.082;5.066;2022-09-27T14:32:27;99868.97;;;12.49;91.45
65760;BME280;52496;51.082;5.066;2022-09-27T14:35:13;99875.22;;;12.43;91.26
65760;BME280;52496;51.082;5.066;2022-09-27T14:38:06;99879.06;;;12.28;90.63
65760;BME280;52496;51.082;5.066;2022-09-27T14:40:40;99888.22;;;12.14;90.43
65760;BME280;52496;51.082;5.066;2022-09-27T14:43:18;99887.94;;;11.97;90.70
65760;BME280;52496;51.082;5.066;2022-09-27T14:45:52;99885.75;;;11.87;91.84
65760;BME280;52496;51.082;5.066;2022-09-27T14:48:28;99881.44;;;11.80;93.95
65760;BME280;52496;51.082;5.066;2022-09-27T14:53:48;99896.94;;;11.71;94.12
65760;BME280;52496;51.082;5.066;2022-09-27T14:56:21;99892.63;;;11.70;93.79
65760;BME280;52496;51.082;5.066;2022-09-27T14:58:57;99893.25;;;11.65;92.10
65760;BME280;52496;51.082;5.066;2022-09-27T15:01:31;99879.31;;;11.57;93.96
65760;BME280;52496;51.082;5.066;2022-09-27T15:04:12;99863.50;;;11.48;92.67
65760;BME280;52496;51.082;5.066;2022-09-27T15:06:48;99863.91;;;11.45;94.60
65760;BME280;52496;51.082;5.066;2022-09-27T15:09:21;99858.78;;;11.44;95.80
65760;BME280;52496;51.082;5.066;2022-09-27T15:11:57;99850.91;;;11.49;98.60
65760;BME280;52496;51.082;5.066;2022-09-27T15:14:30;99847.81;;;11.52;97.32
65760;BME280;52496;51.082;5.066;2022-09-27T15:17:02;99850.69;;;11.57;98.97
65760;BME280;52496;51.082;5.066;2022-09-27T15:19:35;99846.53;;;11.61;97.34
65760;BME280;52496;51.082;5.066;2022-09-27T15:22:29;99856.41;;;11.61;96.61
65760;BME280;52496;51.082;5.066;2022-09-27T15:25:14;99854.38;;;11.56;96.27
65760;BME280;52496;51.082;5.066;2022-09-27T15:27:53;99859.97;;;11.55;96.21
65760;BME280;52496;51.082;5.066;2022-09-27T15:30:32;99856.50;;;11.47;96.14
65760;BME280;52496;51.082;5.066;2022-09-27T15:33:05;99853.63;;;11.42;96.28
65760;BME280;52496;51.082;5.066;2022-09-27T15:35:36;99850.97;;;11.42;98.16
65760;BME280;52496;51.082;5.066;2022-09-27T15:38:21;99847.84;;;11.45;99.75
65760;BME280;52496;51.082;5.066;2022-09-27T15:43:34;99829.94;;;11.46;98.75
65760;BME280;52496;51.082;5.066;2022-09-27T15:49:18;99832.56;;;11.53;100.00
65760;BME280;52496;51.082;5.066;2022-09-27T15:51:54;99836.25;;;11.58;99.95
65760;BME280;52496;51.082;5.066;2022-09-27T15:54:29;99837.44;;;11.62;100.00
65760;BME280;52496;51.082;5.066;2022-09-27T15:57:03;99828.78;;;11.67;100.00
65760;BME280;52496;51.082;5.066;2022-09-27T15:59:35;99821.13;;;11.70;100.00
65760;BME280;52496;51.082;5.066;2022-09-27T16:02:15;99816.78;;;11.76;100.00
65760;BME280;52496;51.082;5.066;2022-09-27T16:04:48;99797.75;;;11.84;100.00
65760;BME280;52496;51.082;5.066;2022-09-27T16:07:19;99791.56;;;11.90;100.00
65760;BME280;52496;51.082;5.066;2022-09-27T16:09:49;99799.97;;;11.94;99.07
65760;BME280;52496;51.082;5.066;2022-09-27T16:12:21;99789.63;;;11.98;98.22
65760;BME280;52496;51.082;5.066;2022-09-27T16:14:52;99791.06;;;12.00;98.13
65760;BME280;52496;51.082;5.066;2022-09-27T16:17:22;99788.59;;;11.99;97.50